createdAt,value
2018-05-04T00:00:57.287Z,75.70
2018-05-04T00:01:57.162Z,75.80
2018-05-04T00:02:57.032Z,72.30
2018-05-04T00:03:56.919Z,71.30
2018-05-04T00:04:56.782Z,77.80
2018-05-04T00:05:56.662Z,72.00
2018-05-04T00:06:56.531Z,76.60
2018-05-04T00:07:56.404Z,72.60
2018-05-04T00:08:56.277Z,76.40
2018-05-04T00:09:56.152Z,78.20
2018-05-04T00:10:56.027Z,82.40
2018-05-04T00:11:55.901Z,85.10
2018-05-04T00:12:55.779Z,82.70
2018-05-04T00:13:55.650Z,84.40
2018-05-04T00:14:55.528Z,80.80
2018-05-04T00:15:55.398Z,76.80
2018-05-04T00:16:55.275Z,79.10
2018-05-04T00:17:55.149Z,74.90
2018-05-04T00:18:55.027Z,76.70
2018-05-04T00:19:54.897Z,78.90
2018-05-04T00:20:54.770Z,77.40
2018-05-04T00:21:54.652Z,82.00
2018-05-04T00:22:54.522Z,73.70
2018-05-04T00:23:54.394Z,75.20
2018-05-04T00:24:54.268Z,76.70
2018-05-04T00:25:54.147Z,74.00
2018-05-04T00:26:54.018Z,75.90
2018-05-04T00:27:53.893Z,77.10
2018-05-04T00:28:53.768Z,76.10
2018-05-04T00:29:53.645Z,70.60
2018-05-04T00:30:53.515Z,73.80
2018-05-04T00:31:53.392Z,75.40
2018-05-04T00:32:53.264Z,74.60
2018-05-04T00:33:53.139Z,76.90
2018-05-04T00:34:53.014Z,74.00
2018-05-04T00:35:52.888Z,75.20
2018-05-04T00:36:52.765Z,73.70
2018-05-04T00:37:55.305Z,69.80
2018-05-04T00:38:52.514Z,68.80
2018-05-04T00:39:52.388Z,72.10
2018-05-04T00:40:52.262Z,69.90
2018-05-04T00:41:52.140Z,71.90
2018-05-04T00:42:52.015Z,70.80
2018-05-04T00:43:51.888Z,72.40
2018-05-04T00:44:51.760Z,72.20
2018-05-04T00:45:51.631Z,72.50
2018-05-04T00:46:51.510Z,73.00
2018-05-04T00:47:51.381Z,72.50
2018-05-04T00:48:51.256Z,74.80
2018-05-04T00:49:51.173Z,73.40
2018-05-04T00:50:51.007Z,74.70
2018-05-04T00:51:50.878Z,72.10
2018-05-04T00:52:50.754Z,71.60
2018-05-04T00:53:50.632Z,67.70
2018-05-04T00:54:50.502Z,73.10
2018-05-04T00:55:50.377Z,74.40
2018-05-04T00:56:50.251Z,78.00
2018-05-04T00:57:50.127Z,74.90
2018-05-04T00:58:50.002Z,76.60
2018-05-04T00:59:49.874Z,75.80
2018-05-04T01:00:49.752Z,79.30
2018-05-04T01:01:49.627Z,78.60
2018-05-04T01:02:49.497Z,75.70
2018-05-04T01:03:49.372Z,80.90
2018-05-04T01:04:49.247Z,81.30
2018-05-04T01:05:49.123Z,81.90
2018-05-04T01:06:48.997Z,79.50
2018-05-04T01:07:48.870Z,81.80
2018-05-04T01:08:48.745Z,81.00
2018-05-04T01:09:48.619Z,82.30
2018-05-04T01:10:48.496Z,80.30
2018-05-04T01:11:48.372Z,75.70
2018-05-04T01:12:48.244Z,74.20
2018-05-04T01:13:48.121Z,76.70
2018-05-04T01:14:47.996Z,77.80
2018-05-04T01:15:47.869Z,76.30
2018-05-04T01:16:47.748Z,76.40
2018-05-04T01:17:47.623Z,73.00
2018-05-04T01:18:47.492Z,68.70
2018-05-04T01:19:47.365Z,70.70
2018-05-04T01:20:47.241Z,68.10
2018-05-04T01:21:47.116Z,74.60
2018-05-04T01:22:46.993Z,73.10
2018-05-04T01:23:46.867Z,79.20
2018-05-04T01:24:46.738Z,78.40
2018-05-04T01:25:46.612Z,79.40
2018-05-04T01:26:46.490Z,81.10
2018-05-04T01:27:46.360Z,77.10
2018-05-04T01:28:46.235Z,82.60
2018-05-04T01:29:46.109Z,77.90
2018-05-04T01:30:45.985Z,77.80
2018-05-04T01:31:45.859Z,78.70
2018-05-04T01:32:45.731Z,80.90
2018-05-04T01:33:45.607Z,81.00
2018-05-04T01:34:45.483Z,78.60
2018-05-04T01:35:45.364Z,84.40
2018-05-04T01:36:45.231Z,84.70
2018-05-04T01:37:45.103Z,84.80
2018-05-04T01:38:44.979Z,84.40
2018-05-04T01:39:44.858Z,79.80
2018-05-04T01:40:44.728Z,80.50
2018-05-04T01:41:44.603Z,79.50
2018-05-04T01:42:44.477Z,77.20
2018-05-04T01:43:44.350Z,79.30
2018-05-04T01:44:44.225Z,79.70
2018-05-04T01:45:44.100Z,76.00
2018-05-04T01:46:43.979Z,76.20
2018-05-04T01:47:43.847Z,76.60
2018-05-04T01:48:43.723Z,76.90
2018-05-04T01:49:43.600Z,78.70
2018-05-04T01:50:43.471Z,75.30
2018-05-04T01:51:43.346Z,73.30
2018-05-04T01:52:43.222Z,70.50
2018-05-04T01:53:43.096Z,79.90
2018-05-04T01:54:42.972Z,78.70
2018-05-04T01:55:42.843Z,85.50
2018-05-04T01:56:42.722Z,79.20
2018-05-04T01:57:42.594Z,79.60
2018-05-04T01:58:42.469Z,81.10
2018-05-04T01:59:42.344Z,82.40
2018-05-04T02:00:42.219Z,75.70
2018-05-04T02:01:42.091Z,75.50
2018-05-04T02:02:41.969Z,77.30
2018-05-04T02:03:41.842Z,76.30
2018-05-04T02:04:41.721Z,77.10
2018-05-04T02:05:41.590Z,78.10
2018-05-04T02:06:41.467Z,71.60
2018-05-04T02:07:41.343Z,71.00
2018-05-04T02:08:41.214Z,72.00
2018-05-04T02:09:41.089Z,74.40
2018-05-04T02:10:40.965Z,76.30
2018-05-04T02:11:40.839Z,78.70
2018-05-04T02:12:40.712Z,74.20
2018-05-04T02:13:40.588Z,74.00
2018-05-04T02:14:40.463Z,74.30
2018-05-04T02:15:40.335Z,74.80
2018-05-04T02:16:40.210Z,80.00
2018-05-04T02:17:40.085Z,79.80
2018-05-04T02:18:39.958Z,83.00
2018-05-04T02:19:39.832Z,80.10
2018-05-04T02:20:39.710Z,83.30
2018-05-04T02:21:39.584Z,81.20
2018-05-04T02:22:39.460Z,87.10
2018-05-04T02:23:39.331Z,82.60
2018-05-04T02:24:39.207Z,85.40
2018-05-04T02:25:39.081Z,80.90
2018-05-04T02:26:38.955Z,85.90
2018-05-04T02:27:38.829Z,85.00
2018-05-04T02:28:38.706Z,90.20
2018-05-04T02:29:38.577Z,88.30
2018-05-04T02:30:38.451Z,89.30
2018-05-04T02:31:38.325Z,86.80
2018-05-04T02:32:38.203Z,86.30
2018-05-04T02:33:38.077Z,87.70
2018-05-04T02:34:37.949Z,83.20
2018-05-04T02:35:37.826Z,82.50
2018-05-04T02:36:37.698Z,82.90
2018-05-04T02:37:37.574Z,77.30
2018-05-04T02:38:37.451Z,83.50
2018-05-04T02:39:37.325Z,84.80
2018-05-04T02:40:37.199Z,83.60
2018-05-04T02:41:37.072Z,84.70
2018-05-04T02:42:36.950Z,86.50
2018-05-04T02:43:36.822Z,85.80
2018-05-04T02:44:36.693Z,87.70
2018-05-04T02:45:36.570Z,88.90
2018-05-04T02:46:36.444Z,88.00
2018-05-04T02:47:36.319Z,87.30
2018-05-04T02:48:36.190Z,91.20
2018-05-04T02:49:36.069Z,90.50
2018-05-04T02:50:35.942Z,96.30
2018-05-04T02:51:35.813Z,92.50
2018-05-04T02:52:35.688Z,95.20
2018-05-04T02:53:35.562Z,91.90
2018-05-04T02:54:35.437Z,92.20
2018-05-04T02:55:35.313Z,91.80
2018-05-04T02:56:35.186Z,91.80
2018-05-04T02:57:35.059Z,96.00
2018-05-04T02:58:34.935Z,95.10
2018-05-04T02:59:34.809Z,89.00
2018-05-04T03:00:34.681Z,96.30
2018-05-04T03:01:34.556Z,94.80
2018-05-04T03:02:34.434Z,101.50
2018-05-04T03:03:34.315Z,101.50
2018-05-04T03:04:34.181Z,107.60
2018-05-04T03:05:34.055Z,103.40
2018-05-04T03:06:33.928Z,105.90
2018-05-04T03:07:33.803Z,108.40
2018-05-04T03:08:33.677Z,107.40
2018-05-04T03:09:33.552Z,109.30
2018-05-04T03:10:33.426Z,111.60
2018-05-04T03:11:33.303Z,109.70
2018-05-04T03:12:33.176Z,108.00
2018-05-04T03:13:33.048Z,107.00
2018-05-04T03:14:32.922Z,104.30
2018-05-04T03:15:32.800Z,107.90
2018-05-04T03:16:32.732Z,110.80
2018-05-04T03:17:32.544Z,101.80
2018-05-04T03:18:32.418Z,98.60
2018-05-04T03:19:32.291Z,101.30
2018-05-04T03:20:32.167Z,105.40
2018-05-04T03:21:32.043Z,98.30
2018-05-04T03:22:31.917Z,99.80
2018-05-04T03:23:31.789Z,105.60
2018-05-04T03:24:31.663Z,111.20
2018-05-04T03:25:31.538Z,106.50
2018-05-04T03:26:31.412Z,109.50
2018-05-04T03:27:31.293Z,104.30
2018-05-04T03:28:31.157Z,105.40
2018-05-04T03:29:31.036Z,101.40
2018-05-04T03:30:30.913Z,102.40
2018-05-04T03:31:30.781Z,105.90
2018-05-04T03:32:30.657Z,98.70
2018-05-04T03:33:30.531Z,98.60
2018-05-04T03:34:30.403Z,98.20
2018-05-04T03:35:30.280Z,99.70
2018-05-04T03:36:30.155Z,97.60
2018-05-04T03:37:30.029Z,92.10
2018-05-04T03:38:29.914Z,91.80
2018-05-04T03:39:29.775Z,96.10
2018-05-04T03:40:29.649Z,102.30
2018-05-04T03:41:29.527Z,99.50
2018-05-04T03:42:29.401Z,98.20
2018-05-04T03:43:29.271Z,103.10
2018-05-04T03:44:29.150Z,107.50
2018-05-04T03:45:29.022Z,102.20
2018-05-04T03:46:28.897Z,107.20
2018-05-04T03:47:28.773Z,102.30
2018-05-04T03:48:28.646Z,108.20
2018-05-04T03:49:28.521Z,108.70
2018-05-04T03:50:28.394Z,105.10
2018-05-04T03:51:28.273Z,103.00
2018-05-04T03:52:28.148Z,97.10
2018-05-04T03:53:28.019Z,101.60
2018-05-04T03:54:27.890Z,99.70
2018-05-04T03:55:27.765Z,100.60
2018-05-04T03:56:27.640Z,108.30
2018-05-04T03:57:27.514Z,107.10
2018-05-04T03:58:27.389Z,106.10
2018-05-04T03:59:27.259Z,108.40
2018-05-04T04:00:27.139Z,111.80
2018-05-04T04:01:27.011Z,102.30
2018-05-04T04:02:26.932Z,108.60
2018-05-04T04:03:26.759Z,115.00
2018-05-04T04:04:26.635Z,123.10
2018-05-04T04:05:26.509Z,115.20
2018-05-04T04:06:26.385Z,116.50
2018-05-04T04:07:26.256Z,113.80
2018-05-04T04:08:26.133Z,110.90
2018-05-04T04:09:26.005Z,112.20
2018-05-04T04:10:25.880Z,112.40
2018-05-04T04:11:25.753Z,109.10
2018-05-04T04:12:25.631Z,111.80
2018-05-04T04:13:25.504Z,108.80
2018-05-04T04:14:25.376Z,108.00
2018-05-04T04:15:25.252Z,134.50
2018-05-04T04:16:25.123Z,162.40
2018-05-04T04:17:24.998Z,160.40
2018-05-04T04:18:24.874Z,147.80
2018-05-04T04:19:24.758Z,169.80
2018-05-04T04:20:24.625Z,125.00
2018-05-04T04:21:24.498Z,133.00
2018-05-04T04:22:24.369Z,123.20
2018-05-04T04:23:24.283Z,135.40
2018-05-04T04:24:24.118Z,131.60
2018-05-04T04:25:23.993Z,130.40
2018-05-04T04:26:23.867Z,126.90
2018-05-04T04:27:23.740Z,131.00
2018-05-04T04:28:23.617Z,124.10
2018-05-04T04:29:23.490Z,124.10
2018-05-04T04:30:23.367Z,132.90
2018-05-04T04:31:23.240Z,126.10
2018-05-04T04:32:23.113Z,136.10
2018-05-04T04:33:22.988Z,155.10
2018-05-04T04:34:22.866Z,133.40
2018-05-04T04:35:22.735Z,137.50
2018-05-04T04:36:22.611Z,202.10
2018-05-04T04:37:22.485Z,132.80
2018-05-04T04:38:22.359Z,183.70
2018-05-04T04:39:22.232Z,141.70
2018-05-04T04:40:22.106Z,141.10
2018-05-04T04:41:21.980Z,194.10
2018-05-04T04:42:21.852Z,175.10
2018-05-04T04:43:21.726Z,130.20
2018-05-04T04:44:21.602Z,148.70
2018-05-04T04:45:21.479Z,133.10
2018-05-04T04:46:21.353Z,137.00
2018-05-04T04:47:21.228Z,124.90
2018-05-04T04:48:21.096Z,122.10
2018-05-04T04:49:20.974Z,120.00
2018-05-04T04:50:20.850Z,126.90
2018-05-04T04:51:20.722Z,127.10
2018-05-04T04:52:20.599Z,117.60
2018-05-04T04:53:20.468Z,117.80
2018-05-04T04:54:20.343Z,118.60
2018-05-04T04:55:20.218Z,118.80
2018-05-04T04:56:20.096Z,128.30
2018-05-04T04:57:19.970Z,123.30
2018-05-04T04:58:19.843Z,133.10
2018-05-04T04:59:19.718Z,133.00
2018-05-04T05:00:19.593Z,139.50
2018-05-04T05:01:19.467Z,131.30
2018-05-04T05:02:19.342Z,135.10
2018-05-04T05:03:19.215Z,131.20
2018-05-04T05:04:19.095Z,144.20
2018-05-04T05:05:18.968Z,150.20
2018-05-04T05:06:18.838Z,152.70
2018-05-04T05:07:18.715Z,153.60
2018-05-04T05:08:18.588Z,141.80
2018-05-04T05:09:18.463Z,143.60
2018-05-04T05:10:18.335Z,141.60
2018-05-04T05:11:18.208Z,141.20
2018-05-04T05:12:18.087Z,146.40
2018-05-04T05:13:17.959Z,144.00
2018-05-04T05:14:17.836Z,151.20
2018-05-04T05:15:17.707Z,141.70
2018-05-04T05:16:17.585Z,150.40
2018-05-04T05:17:17.458Z,152.30
2018-05-04T05:18:17.333Z,140.40
2018-05-04T05:19:17.205Z,137.50
2018-05-04T05:20:17.080Z,163.30
2018-05-04T05:21:16.956Z,116.40
2018-05-04T05:22:16.830Z,119.90
2018-05-04T05:23:16.703Z,123.30
2018-05-04T05:24:16.578Z,127.90
2018-05-04T05:25:16.454Z,245.20
2018-05-04T05:26:16.329Z,381.10
2018-05-04T05:27:16.202Z,200.50
2018-05-04T05:28:16.077Z,182.70
2018-05-04T05:29:15.954Z,174.80
2018-05-04T05:30:15.827Z,159.40
2018-05-04T05:31:15.698Z,169.50
2018-05-04T05:32:15.576Z,310.90
2018-05-04T05:33:15.451Z,622.90
2018-05-04T05:34:15.323Z,619.30
2018-05-04T05:35:15.196Z,579.10
2018-05-04T05:36:15.074Z,567.70
2018-05-04T05:37:14.947Z,558.20
2018-05-04T05:38:14.823Z,399.00
2018-05-04T05:39:14.696Z,424.40
2018-05-04T05:40:14.567Z,406.20
2018-05-04T05:41:14.444Z,432.10
2018-05-04T05:42:14.317Z,241.30
2018-05-04T05:43:14.192Z,221.50
2018-05-04T05:44:14.066Z,175.00
2018-05-04T05:45:13.941Z,147.40
2018-05-04T05:46:13.815Z,146.10
2018-05-04T05:47:13.688Z,136.40
2018-05-04T05:48:13.563Z,148.20
2018-05-04T05:49:13.443Z,158.60
2018-05-04T05:50:13.312Z,215.10
2018-05-04T05:51:13.187Z,270.00
2018-05-04T05:52:13.060Z,258.50
2018-05-04T05:53:12.934Z,223.60
2018-05-04T05:54:12.809Z,247.40
2018-05-04T05:55:12.682Z,235.50
2018-05-04T05:56:12.557Z,203.30
2018-05-04T05:57:12.432Z,211.40
2018-05-04T05:58:12.305Z,208.30
2018-05-04T05:59:12.179Z,169.20
2018-05-04T06:00:12.056Z,200.00
2018-05-04T06:01:11.928Z,174.50
2018-05-04T06:02:11.805Z,175.90
2018-05-04T06:03:11.682Z,177.10
2018-05-04T06:04:11.552Z,169.30
2018-05-04T06:05:11.425Z,155.90
2018-05-04T06:06:11.298Z,167.40
2018-05-04T06:07:11.174Z,172.20
2018-05-04T06:08:11.111Z,173.00
2018-05-04T06:09:10.924Z,177.60
2018-05-04T06:10:10.800Z,173.30
2018-05-04T06:11:10.671Z,166.40
2018-05-04T06:12:10.543Z,161.50
2018-05-04T06:13:10.421Z,158.90
2018-05-04T06:14:10.295Z,152.80
2018-05-04T06:15:10.239Z,158.20
2018-05-04T06:16:10.045Z,157.40
2018-05-04T06:17:09.917Z,156.80
2018-05-04T06:18:09.790Z,155.70
2018-05-04T06:19:09.669Z,147.80
2018-05-04T06:20:09.542Z,152.70
2018-05-04T06:21:09.415Z,147.90
2018-05-04T06:22:09.289Z,132.50
2018-05-04T06:23:09.165Z,139.60
2018-05-04T06:24:09.042Z,144.20
2018-05-04T06:25:08.987Z,145.40
2018-05-04T06:26:08.788Z,145.40
2018-05-04T06:27:08.661Z,138.40
2018-05-04T06:28:08.536Z,133.80
2018-05-04T06:29:08.413Z,134.80
2018-05-04T06:30:08.285Z,147.10
2018-05-04T06:31:08.162Z,137.30
2018-05-04T06:32:08.033Z,131.30
2018-05-04T06:33:07.912Z,130.10
2018-05-04T06:34:07.785Z,307.00
2018-05-04T06:35:07.658Z,308.20
2018-05-04T06:36:07.534Z,285.30
2018-05-04T06:37:07.406Z,237.60
2018-05-04T06:38:07.282Z,268.80
2018-05-04T06:39:07.158Z,122.50
2018-05-04T06:40:07.033Z,113.40
2018-05-04T06:41:06.911Z,108.40
2018-05-04T06:42:06.784Z,117.60
2018-05-04T06:43:06.655Z,121.40
2018-05-04T06:44:06.528Z,127.20
2018-05-04T06:45:06.410Z,129.40
2018-05-04T06:46:06.280Z,115.80
2018-05-04T06:47:06.155Z,135.10
2018-05-04T06:48:06.030Z,200.00
2018-05-04T06:49:05.908Z,132.00
2018-05-04T06:50:05.780Z,137.10
2018-05-04T06:51:05.652Z,152.20
2018-05-04T06:52:05.529Z,161.50
2018-05-04T06:53:05.401Z,176.80
2018-05-04T06:54:05.278Z,120.10
2018-05-04T06:55:05.149Z,279.40
2018-05-04T06:56:05.026Z,475.60
2018-05-04T06:57:04.901Z,453.20
2018-05-04T06:58:04.778Z,354.10
2018-05-04T06:59:04.651Z,607.90
2018-05-04T07:00:04.523Z,482.20
2018-05-04T07:01:04.401Z,365.60
2018-05-04T07:02:04.274Z,430.50
2018-05-04T07:03:04.151Z,180.60
2018-05-04T07:04:04.026Z,148.80
2018-05-04T07:05:03.899Z,174.20
2018-05-04T07:06:03.774Z,163.50
2018-05-04T07:07:03.648Z,149.00
2018-05-04T07:08:03.520Z,154.20
2018-05-04T07:09:03.417Z,247.30
2018-05-04T07:10:03.271Z,443.70
2018-05-04T07:11:03.147Z,511.00
2018-05-04T07:12:03.023Z,352.90
2018-05-04T07:13:02.894Z,585.60
2018-05-04T07:14:02.771Z,364.30
2018-05-04T07:15:02.684Z,322.20
2018-05-04T07:16:02.521Z,246.10
2018-05-04T07:17:02.396Z,234.70
2018-05-04T07:18:02.267Z,192.30
2018-05-04T07:19:02.141Z,152.80
2018-05-04T07:20:02.020Z,617.50
2018-05-04T07:21:01.894Z,488.50
2018-05-04T07:22:01.777Z,227.10
2018-05-04T07:23:01.642Z,233.60
2018-05-04T07:24:01.517Z,205.60
2018-05-04T07:25:01.393Z,184.20
2018-05-04T07:26:01.264Z,226.80
2018-05-04T07:27:01.139Z,168.30
2018-05-04T07:28:01.014Z,134.80
2018-05-04T07:29:00.889Z,148.50
2018-05-04T07:30:00.764Z,133.70
2018-05-04T07:31:00.639Z,117.90
2018-05-04T07:32:00.510Z,144.50
2018-05-04T07:33:00.390Z,138.80
2018-05-04T07:34:00.271Z,109.90
2018-05-04T07:35:00.143Z,431.00
2018-05-04T07:36:00.041Z,478.70
2018-05-04T07:36:59.888Z,334.00
2018-05-04T07:37:59.761Z,374.10
2018-05-04T07:38:59.636Z,345.10
2018-05-04T07:39:59.509Z,140.20
2018-05-04T07:40:59.383Z,167.80
2018-05-04T07:41:59.260Z,215.40
2018-05-04T07:42:59.132Z,316.00
2018-05-04T07:43:59.015Z,124.30
2018-05-04T07:44:58.882Z,167.40
2018-05-04T07:45:58.758Z,172.30
2018-05-04T07:46:58.631Z,447.70
2018-05-04T07:47:58.504Z,513.10
2018-05-04T07:48:58.379Z,232.00
2018-05-04T07:49:58.254Z,263.70
2018-05-04T07:50:58.128Z,201.90
2018-05-04T07:51:58.006Z,174.70
2018-05-04T07:52:57.877Z,171.50
2018-05-04T07:53:57.755Z,128.30
2018-05-04T07:54:57.629Z,131.80
2018-05-04T07:55:57.503Z,243.70
2018-05-04T07:56:57.376Z,369.00
2018-05-04T07:57:57.251Z,203.80
2018-05-04T07:58:57.125Z,352.20
2018-05-04T07:59:57.004Z,156.30
2018-05-04T08:00:56.872Z,137.00
2018-05-04T08:01:56.750Z,141.60
2018-05-04T08:02:56.673Z,238.90
2018-05-04T08:03:56.498Z,146.20
2018-05-04T08:04:56.374Z,129.00
2018-05-04T08:05:56.249Z,188.20
2018-05-04T08:06:56.123Z,138.50
2018-05-04T08:07:55.996Z,133.60
2018-05-04T08:08:55.871Z,120.30
2018-05-04T08:09:55.746Z,111.10
2018-05-04T08:10:55.621Z,108.10
2018-05-04T08:11:55.496Z,105.10
2018-05-04T08:12:55.372Z,105.00
2018-05-04T08:13:55.247Z,97.40
2018-05-04T08:14:55.123Z,84.20
2018-05-04T08:15:54.997Z,88.30
2018-05-04T08:16:54.869Z,89.90
2018-05-04T08:17:54.744Z,87.10
2018-05-04T08:18:54.621Z,79.00
2018-05-04T08:19:54.496Z,75.30
2018-05-04T08:20:54.368Z,83.50
2018-05-04T08:21:54.245Z,85.90
2018-05-04T08:22:54.123Z,89.00
2018-05-04T08:23:53.994Z,88.50
2018-05-04T08:24:53.874Z,84.80
2018-05-04T08:25:53.747Z,85.90
2018-05-04T08:26:53.620Z,78.00
2018-05-04T08:27:53.498Z,76.80
2018-05-04T08:28:53.373Z,82.30
2018-05-04T08:29:53.245Z,75.20
2018-05-04T08:30:53.119Z,76.30
2018-05-04T08:31:52.996Z,76.30
2018-05-04T08:32:52.871Z,79.70
2018-05-04T08:33:52.765Z,84.20
2018-05-04T08:34:52.620Z,72.00
2018-05-04T08:35:52.499Z,68.30
2018-05-04T08:36:52.371Z,71.10
2018-05-04T08:37:52.248Z,69.50
2018-05-04T08:38:52.121Z,66.60
2018-05-04T08:39:52.000Z,66.70
2018-05-04T08:40:51.971Z,65.70
2018-05-04T08:41:51.749Z,72.10
2018-05-04T08:42:51.695Z,66.20
2018-05-04T08:43:51.498Z,70.20
2018-05-04T08:44:51.373Z,69.30
2018-05-04T08:45:51.248Z,73.00
2018-05-04T08:46:51.171Z,66.40
2018-05-04T08:47:50.999Z,60.70
2018-05-04T08:48:50.872Z,66.90
2018-05-04T08:49:50.749Z,61.50
2018-05-04T08:50:50.712Z,58.50
2018-05-04T08:51:50.499Z,60.90
2018-05-04T08:52:50.380Z,58.20
2018-05-04T08:53:50.319Z,59.40
2018-05-04T08:54:50.124Z,61.10
2018-05-04T08:55:50.001Z,63.20
2018-05-04T08:56:49.874Z,62.00
2018-05-04T08:57:49.756Z,64.50
2018-05-04T08:58:49.625Z,70.20
2018-05-04T08:59:49.503Z,71.60
2018-05-04T09:00:49.378Z,72.20
2018-05-04T09:01:49.251Z,73.50
2018-05-04T09:02:49.125Z,80.50
2018-05-04T09:03:49.001Z,77.10
2018-05-04T09:04:48.880Z,69.00
2018-05-04T09:05:48.754Z,66.90
2018-05-04T09:06:48.627Z,68.60
2018-05-04T09:07:48.503Z,66.20
2018-05-04T09:08:48.381Z,63.10
2018-05-04T09:09:48.255Z,60.40
2018-05-04T09:10:48.128Z,64.30
2018-05-04T09:11:48.006Z,63.20
2018-05-04T09:12:47.891Z,65.10
2018-05-04T09:13:47.758Z,60.90
2018-05-04T09:14:47.630Z,61.50
2018-05-04T09:15:47.510Z,59.40
2018-05-04T09:16:47.379Z,58.90
2018-05-04T09:17:47.253Z,64.00
2018-05-04T09:18:47.131Z,56.70
2018-05-04T09:19:47.035Z,53.30
2018-05-04T09:20:46.883Z,55.80
2018-05-04T09:21:46.758Z,56.00
2018-05-04T09:22:46.641Z,55.30
2018-05-04T09:23:46.509Z,55.50
2018-05-04T09:24:46.386Z,56.90
2018-05-04T09:25:46.260Z,59.70
2018-05-04T09:26:46.141Z,57.60
2018-05-04T09:27:46.012Z,51.90
2018-05-04T09:28:45.886Z,47.40
2018-05-04T09:29:45.765Z,51.10
2018-05-04T09:30:45.678Z,49.70
2018-05-04T09:31:45.513Z,51.40
2018-05-04T09:32:45.391Z,50.10
2018-05-04T09:33:45.266Z,48.00
2018-05-04T09:34:45.139Z,47.10
2018-05-04T09:35:45.019Z,46.20
2018-05-04T09:36:44.893Z,44.40
2018-05-04T09:37:44.770Z,45.20
2018-05-04T09:38:44.642Z,44.60
2018-05-04T09:39:44.518Z,46.90
2018-05-04T09:40:44.399Z,45.70
2018-05-04T09:41:44.272Z,46.10
2018-05-04T09:42:44.148Z,43.80
2018-05-04T09:43:44.105Z,43.30
2018-05-04T09:44:43.900Z,46.30
2018-05-04T09:45:43.776Z,44.50
2018-05-04T09:46:43.652Z,44.90
2018-05-04T09:47:43.526Z,46.30
2018-05-04T09:48:43.406Z,44.60
2018-05-04T09:49:43.278Z,45.80
2018-05-04T09:50:43.152Z,44.60
2018-05-04T09:51:43.031Z,44.20
2018-05-04T09:52:42.907Z,42.70
2018-05-04T09:53:42.783Z,45.50
2018-05-04T09:54:42.657Z,43.10
2018-05-04T09:55:42.533Z,39.60
2018-05-04T09:56:42.409Z,39.90
2018-05-04T09:57:42.285Z,40.60
2018-05-04T09:58:42.162Z,40.50
2018-05-04T09:59:42.042Z,40.40
2018-05-04T10:00:41.914Z,41.50
2018-05-04T10:01:41.814Z,37.60
2018-05-04T10:02:41.664Z,38.40
2018-05-04T10:03:41.544Z,38.20
2018-05-04T10:04:41.418Z,36.60
2018-05-04T10:05:41.295Z,39.00
2018-05-04T10:06:41.171Z,36.20
2018-05-04T10:07:41.045Z,38.80
2018-05-04T10:08:40.922Z,34.40
2018-05-04T10:09:40.799Z,36.40
2018-05-04T10:10:40.676Z,34.60
2018-05-04T10:11:40.553Z,35.00
2018-05-04T10:12:40.428Z,35.90
2018-05-04T10:13:40.306Z,33.20
2018-05-04T10:14:40.185Z,32.60
2018-05-04T10:15:40.062Z,32.70
2018-05-04T10:16:39.935Z,30.70
2018-05-04T10:17:39.816Z,31.60
2018-05-04T10:18:39.689Z,32.80
2018-05-04T10:19:39.570Z,32.60
2018-05-04T10:20:39.448Z,32.00
2018-05-04T10:21:39.325Z,31.40
2018-05-04T10:22:39.199Z,32.00
2018-05-04T10:23:39.080Z,28.70
2018-05-04T10:24:38.955Z,30.10
2018-05-04T10:25:38.836Z,30.50
2018-05-04T10:26:38.710Z,30.10
2018-05-04T10:27:38.590Z,30.80
2018-05-04T10:28:38.466Z,28.50
2018-05-04T10:29:38.346Z,27.00
2018-05-04T10:30:38.224Z,28.70
2018-05-04T10:31:38.104Z,28.40
2018-05-04T10:32:37.980Z,30.10
2018-05-04T10:33:37.926Z,25.80
2018-05-04T10:34:37.737Z,25.00
2018-05-04T10:35:37.612Z,23.70
2018-05-04T10:36:37.494Z,22.50
2018-05-04T10:37:37.370Z,22.20
2018-05-04T10:38:37.360Z,20.50
2018-05-04T10:39:37.129Z,19.80
2018-05-04T10:40:37.012Z,20.10
2018-05-04T10:41:36.884Z,22.60
2018-05-04T10:42:36.761Z,22.20
2018-05-04T10:43:36.637Z,21.00
2018-05-04T10:44:36.519Z,21.10
2018-05-04T10:45:36.395Z,21.20
2018-05-04T10:46:36.272Z,19.40
2018-05-04T10:47:36.152Z,19.40
2018-05-04T10:48:36.029Z,21.30
2018-05-04T10:49:35.906Z,21.90
2018-05-04T10:50:35.784Z,20.50
2018-05-04T10:51:35.662Z,21.70
2018-05-04T10:52:35.545Z,20.50
2018-05-04T10:53:35.422Z,20.60
2018-05-04T10:54:35.298Z,20.40
2018-05-04T10:55:35.176Z,21.30
2018-05-04T10:56:35.055Z,19.60
2018-05-04T10:57:34.933Z,20.60
2018-05-04T10:58:34.811Z,19.20
2018-05-04T10:59:34.690Z,18.60
2018-05-04T11:00:34.570Z,17.90
2018-05-04T11:01:34.445Z,19.00
2018-05-04T11:02:34.324Z,17.90
2018-05-04T11:03:34.205Z,17.30
2018-05-04T11:04:34.081Z,17.70
2018-05-04T11:05:33.959Z,17.60
2018-05-04T11:06:33.838Z,18.50
2018-05-04T11:07:33.716Z,16.20
2018-05-04T11:08:33.595Z,16.30
2018-05-04T11:09:33.476Z,15.30
2018-05-04T11:10:33.352Z,14.70
2018-05-04T11:11:33.231Z,15.60
2018-05-04T11:12:33.111Z,14.80
2018-05-04T11:13:32.991Z,15.50
2018-05-04T11:14:32.867Z,14.20
2018-05-04T11:15:32.746Z,16.20
2018-05-04T11:16:32.625Z,14.60
2018-05-04T11:17:32.506Z,15.10
2018-05-04T11:18:32.385Z,15.70
2018-05-04T11:19:32.295Z,14.80
2018-05-04T11:20:32.141Z,13.70
2018-05-04T11:21:32.020Z,13.30
2018-05-04T11:22:31.896Z,13.70
2018-05-04T11:23:31.777Z,14.80
2018-05-04T11:24:31.655Z,13.70
2018-05-04T11:25:31.586Z,14.40
2018-05-04T11:26:31.417Z,15.20
2018-05-04T11:27:31.297Z,12.90
2018-05-04T11:28:31.174Z,14.10
2018-05-04T11:29:31.051Z,14.70
2018-05-04T11:30:30.931Z,15.00
2018-05-04T11:31:30.813Z,13.30
2018-05-04T11:32:30.694Z,14.60
2018-05-04T11:33:30.571Z,15.40
2018-05-04T11:34:30.450Z,15.40
2018-05-04T11:35:30.327Z,14.70
2018-05-04T11:36:30.208Z,13.40
2018-05-04T11:37:30.090Z,12.30
2018-05-04T11:38:29.965Z,12.00
2018-05-04T11:39:29.845Z,12.50
2018-05-04T11:40:29.724Z,11.20
2018-05-04T11:41:29.604Z,10.90
2018-05-04T11:42:29.483Z,10.60
2018-05-04T11:43:29.363Z,10.80
2018-05-04T11:44:29.244Z,11.40
2018-05-04T11:45:29.124Z,11.20
2018-05-04T11:46:29.005Z,10.60
2018-05-04T11:47:28.886Z,13.60
2018-05-04T11:48:28.762Z,11.10
2018-05-04T11:49:28.681Z,12.00
2018-05-04T11:50:28.520Z,12.00
2018-05-04T11:51:28.401Z,11.70
2018-05-04T11:52:28.280Z,10.90
2018-05-04T11:53:28.161Z,11.80
2018-05-04T11:54:28.039Z,10.80
2018-05-04T11:55:27.919Z,13.70
2018-05-04T11:56:27.804Z,13.30
2018-05-04T11:57:27.689Z,12.60
2018-05-04T11:58:27.556Z,9.10
2018-05-04T11:59:27.439Z,8.90
2018-05-04T12:00:27.319Z,9.50
2018-05-04T12:01:27.200Z,9.70
2018-05-04T12:02:27.081Z,9.70
2018-05-04T12:03:26.955Z,9.50
2018-05-04T12:04:26.835Z,9.70
2018-05-04T12:05:26.727Z,10.90
2018-05-04T12:06:26.594Z,11.50
2018-05-04T12:07:26.476Z,10.10
2018-05-04T12:08:26.354Z,10.00
2018-05-04T12:09:26.237Z,9.50
2018-05-04T12:10:26.115Z,10.40
2018-05-04T12:11:25.993Z,9.90
2018-05-04T12:12:25.871Z,10.80
2018-05-04T12:13:25.751Z,13.80
2018-05-04T12:14:25.665Z,11.20
2018-05-04T12:15:25.512Z,11.90
2018-05-04T12:16:25.391Z,10.90
2018-05-04T12:17:25.268Z,10.10
2018-05-04T12:18:25.150Z,13.00
2018-05-04T12:19:25.031Z,12.40
2018-05-04T12:20:24.909Z,11.60
2018-05-04T12:21:24.789Z,12.20
2018-05-04T12:22:24.669Z,11.60
2018-05-04T12:23:24.545Z,13.00
2018-05-04T12:24:24.427Z,11.80
2018-05-04T12:25:24.304Z,11.10
2018-05-04T12:26:24.183Z,12.00
2018-05-04T12:27:24.065Z,13.20
2018-05-04T12:28:23.943Z,12.80
2018-05-04T12:29:23.829Z,11.10
2018-05-04T12:30:23.706Z,11.30
2018-05-04T12:31:23.588Z,11.70
2018-05-04T12:32:23.469Z,11.40
2018-05-04T12:33:23.345Z,12.40
2018-05-04T12:34:23.227Z,10.70
2018-05-04T12:35:23.113Z,10.10
2018-05-04T12:36:22.989Z,9.40
2018-05-04T12:37:22.871Z,9.60
2018-05-04T12:38:22.779Z,11.00
2018-05-04T12:39:22.631Z,8.40
2018-05-04T12:40:22.513Z,10.60
2018-05-04T12:41:22.392Z,12.50
2018-05-04T12:42:22.273Z,13.70